LTACLTAU

Guest
Details From LTAC - Esenboga
To LTAU - Erkilet
Flight Number -
Tags Generated
Created
Modified
Stats Distance 141 nm / 261 km
Max Altitude 0 ft / 0 m
Waypoints 2
Social Downloads 2
Likes 0
Share VATSIM

Download

Looking for another format? Having issues loading an existing format? Contact us
Advertisement - Login to hide

Notes

Generated

Route

LTAC LTAU

ID Type Via Altitude Latitude Longitude Leg Dist Tot Dist Heading (true) Name
O LTAC APT - 0 ft / 0 m 40.11406˚ 32.98383˚ - 0 nm - -
O LTAU APT - 0 ft / 0 m 38.76720˚ 35.47866˚ 141 nm 141 nm 124° / 126° -

Altitude Profile

Advertisement - Login to hide

LTAC

Details ICAO LTAC (ESB)
Name ESENBOGA
Region Turkey
Timezone Europe/Istanbul (UTC+3.0)
Stats Elevation 3,125 ft / 953 m (AMSL)
Location 40.128285° 32.995403°
Runways 2
Magnetic Variation 5.755° E

METAR

LTAC 230650Z 01004KT 300V080 9999 FEW040 21/08 Q1020 NOSIG

Decode

TAF

Not found

Departure Runways

ID Width Length Bearing (true) Bearing (mag) Surface Threshold Offset Overrun Length
03L 148 ft / 45 m 12,334 ft / 3,760 m 36.19° 30.44° Asphalt 1,148 ft / 350 m 200 ft / 61 m
03R 197 ft / 60 m 12,258 ft / 3,736 m 35.29° 29.54° Asphalt 0 ft / 0 m 200 ft / 61 m
21L 197 ft / 60 m 12,258 ft / 3,736 m 215.31° 209.56° Asphalt 0 ft / 0 m 200 ft / 61 m
21R 148 ft / 45 m 12,334 ft / 3,760 m 216.21° 210.46° Asphalt 0 ft / 0 m 200 ft / 61 m

LTAU

Details ICAO LTAU (ASR)
Name ERKILET
Region Turkey
Timezone Europe/Istanbul (UTC+3.0)
Stats Elevation 3,463 ft / 1,056 m (AMSL)
Location 38.770384° 35.495427°
Runways 1
Magnetic Variation 5.693° E

METAR

LTAU 230650Z VRB03KT 9999 FEW040 20/09 Q1020 NOSIG

Decode

TAF

Not found

Destination Runways

ID Width Length Bearing (true) Bearing (mag) Surface Threshold Offset Overrun Length
07 145 ft / 44 m 9,822 ft / 2,994 m 76.29° 70.60° Concrete 0 ft / 0 m 500 ft / 152 m
25 145 ft / 44 m 9,822 ft / 2,994 m 256.31° 250.62° Concrete 0 ft / 0 m 500 ft / 152 m

Approach Navaids

Runway Type Ident Frequency Range Bearing (true) Bearing (mag) Slope Elevation
25 Localiser IKSR 110.30 MHz 18 nm / 33 km 256.40° 250.71° - 3,453 ft / 1,052 m (AMSL)
25 Glidescope IKSR 110.30 MHz 10 nm / 19 km 256.30° 250.61° 3.00° 3,463 ft / 1,056 m (AMSL)

Popular Alternatives